createdAt,value
2022-08-31T00:03:08.741Z,99.90
2022-08-31T00:06:04.580Z,99.50
2022-08-31T00:08:53.413Z,97.90
2022-08-31T00:11:43.391Z,99.20
2022-08-31T00:14:32.771Z,98.80
2022-08-31T00:17:21.617Z,99.40
2022-08-31T00:20:33.916Z,98.60
2022-08-31T00:23:27.739Z,98.10
2022-08-31T00:26:22.520Z,97.50
2022-08-31T00:29:12.923Z,99.30
2022-08-31T00:32:09.829Z,98.50
2022-08-31T00:35:08.611Z,97.70
2022-08-31T00:38:41.586Z,97.70
2022-08-31T00:41:38.964Z,96.80
2022-08-31T00:44:27.140Z,96.50
2022-08-31T00:47:17.227Z,98.40
2022-08-31T00:50:25.566Z,97.20
2022-08-31T00:53:25.475Z,97.70
2022-08-31T00:56:17.839Z,97.60
2022-08-31T00:59:13.963Z,95.60
2022-08-31T01:02:03.321Z,96.90
2022-08-31T01:04:51.711Z,98.10
2022-08-31T01:07:41.224Z,95.30
2022-08-31T01:10:35.953Z,95.40
2022-08-31T01:13:27.100Z,93.30
2022-08-31T01:16:27.134Z,95.00
2022-08-31T01:19:26.533Z,95.50
2022-08-31T01:22:35.672Z,95.60
2022-08-31T01:25:34.065Z,96.10
2022-08-31T01:28:22.696Z,95.60
2022-08-31T01:31:26.440Z,96.50
2022-08-31T01:34:22.481Z,95.20
2022-08-31T01:37:18.042Z,95.60
2022-08-31T01:40:24.863Z,96.80
2022-08-31T01:43:36.596Z,96.00
2022-08-31T01:46:27.397Z,96.20
2022-08-31T01:49:18.872Z,97.00
2022-08-31T01:52:14.787Z,96.80
2022-08-31T01:55:05.558Z,97.00
2022-08-31T01:57:54.119Z,97.00
2022-08-31T02:01:31.289Z,96.80
2022-08-31T02:04:24.675Z,95.50
2022-08-31T02:07:16.022Z,95.30
2022-08-31T02:10:04.774Z,97.20
2022-08-31T02:12:52.609Z,96.30
2022-08-31T02:15:51.263Z,95.70
2022-08-31T02:18:40.451Z,95.80
2022-08-31T02:21:28.460Z,95.80
2022-08-31T02:24:16.125Z,96.10
2022-08-31T02:27:04.137Z,96.00
2022-08-31T02:29:52.299Z,96.10
2022-08-31T02:32:39.962Z,95.70
2022-08-31T02:35:29.298Z,95.60
2022-08-31T02:38:17.083Z,94.90
2022-08-31T02:41:07.553Z,95.30
2022-08-31T02:43:57.956Z,95.40
2022-08-31T02:46:46.657Z,94.70
2022-08-31T02:49:49.804Z,94.90
2022-08-31T02:52:39.194Z,95.60
2022-08-31T02:55:30.074Z,94.90
2022-08-31T02:58:23.381Z,95.70
2022-08-31T03:01:12.325Z,95.40
2022-08-31T03:04:03.060Z,95.30
2022-08-31T03:06:51.018Z,95.30
2022-08-31T03:09:40.930Z,95.60
2022-08-31T03:12:31.597Z,94.90
2022-08-31T03:15:21.901Z,95.40
2022-08-31T03:18:10.330Z,94.60
2022-08-31T03:20:58.483Z,95.60
2022-08-31T03:23:46.518Z,95.80
2022-08-31T03:26:36.034Z,95.70
2022-08-31T03:29:23.959Z,95.20
2022-08-31T03:32:14.737Z,95.40
2022-08-31T03:35:07.056Z,95.20
2022-08-31T03:37:55.119Z,94.60
2022-08-31T03:40:46.268Z,94.50
2022-08-31T03:43:35.546Z,93.60
2022-08-31T03:46:24.030Z,94.00
2022-08-31T03:49:14.909Z,94.70
2022-08-31T03:52:15.360Z,93.50
2022-08-31T03:55:11.785Z,94.40
2022-08-31T03:58:01.734Z,94.80
2022-08-31T04:00:54.534Z,95.30
2022-08-31T04:04:02.370Z,95.10
2022-08-31T04:07:09.169Z,95.90
2022-08-31T04:10:16.683Z,95.40
2022-08-31T04:13:31.033Z,95.70
2022-08-31T04:16:41.226Z,95.90
2022-08-31T04:19:47.969Z,94.80
2022-08-31T04:22:46.014Z,95.40
2022-08-31T04:25:49.371Z,95.80
2022-08-31T04:28:36.957Z,95.70
2022-08-31T04:31:27.638Z,95.80
2022-08-31T04:34:18.712Z,95.90
2022-08-31T04:37:08.932Z,96.20
2022-08-31T04:39:59.346Z,96.60
2022-08-31T04:42:47.935Z,96.10
2022-08-31T04:45:42.298Z,96.20
2022-08-31T04:48:32.629Z,96.50
2022-08-31T04:51:24.891Z,96.40
2022-08-31T04:54:15.054Z,95.90
2022-08-31T04:57:03.331Z,96.40
2022-08-31T04:59:53.668Z,96.40
2022-08-31T05:03:00.413Z,96.10
2022-08-31T05:05:50.909Z,96.10
2022-08-31T05:08:40.174Z,96.30
2022-08-31T05:11:29.534Z,95.90
2022-08-31T05:14:17.621Z,96.70
2022-08-31T05:17:14.789Z,97.40
2022-08-31T05:20:05.328Z,96.10
2022-08-31T05:22:53.631Z,96.10
2022-08-31T05:25:45.114Z,95.50
2022-08-31T05:28:34.634Z,94.20
2022-08-31T05:31:23.441Z,95.40
2022-08-31T05:34:15.156Z,95.60
2022-08-31T05:37:04.581Z,95.50
2022-08-31T05:39:54.414Z,95.90
2022-08-31T05:42:43.461Z,95.10
2022-08-31T05:45:34.214Z,95.00
2022-08-31T05:48:23.666Z,95.00
2022-08-31T05:51:20.300Z,95.20
2022-08-31T05:54:10.842Z,94.90
2022-08-31T05:57:01.114Z,95.20
2022-08-31T05:59:51.620Z,95.30
2022-08-31T06:02:40.155Z,95.10
2022-08-31T06:05:30.884Z,95.10
2022-08-31T06:08:27.153Z,95.80
2022-08-31T06:11:19.458Z,95.60
2022-08-31T06:14:08.019Z,95.70
2022-08-31T06:16:57.146Z,94.60
2022-08-31T06:19:45.273Z,94.90
2022-08-31T06:22:35.695Z,94.90
2022-08-31T06:25:26.039Z,94.90
2022-08-31T06:28:24.553Z,95.40
2022-08-31T06:31:18.690Z,94.30
2022-08-31T06:34:21.149Z,94.40
2022-08-31T06:38:03.382Z,93.90
2022-08-31T06:42:02.423Z,95.00
2022-08-31T06:44:59.314Z,95.10
2022-08-31T06:48:03.659Z,94.90
2022-08-31T06:51:00.273Z,94.50
2022-08-31T06:53:49.533Z,94.60
2022-08-31T06:56:57.886Z,94.70
2022-08-31T07:00:06.190Z,94.90
2022-08-31T07:03:33.435Z,95.10
2022-08-31T07:06:27.647Z,95.40
2022-08-31T07:09:18.333Z,93.30
2022-08-31T07:12:07.679Z,93.50
2022-08-31T07:14:55.557Z,94.10
2022-08-31T07:17:45.067Z,94.80
2022-08-31T07:20:33.248Z,95.70
2022-08-31T07:23:22.929Z,96.20
2022-08-31T07:26:22.837Z,95.60
2022-08-31T07:29:12.062Z,96.00
2022-08-31T07:32:00.720Z,96.30
2022-08-31T07:34:56.316Z,96.50
2022-08-31T07:38:09.649Z,96.00
2022-08-31T07:41:17.041Z,95.70
2022-08-31T07:44:05.835Z,96.50
2022-08-31T07:46:55.451Z,96.70
2022-08-31T07:49:51.198Z,96.80
2022-08-31T07:53:08.721Z,96.70
2022-08-31T07:56:18.484Z,97.10
2022-08-31T07:59:07.577Z,97.70
2022-08-31T08:02:00.784Z,98.20
2022-08-31T08:04:53.456Z,98.10
2022-08-31T08:08:10.676Z,98.00
2022-08-31T08:11:23.309Z,97.90
2022-08-31T08:14:41.352Z,98.10
2022-08-31T08:17:49.563Z,98.00
2022-08-31T08:20:42.506Z,98.40
2022-08-31T08:23:31.595Z,98.30
2022-08-31T08:26:32.909Z,98.30
2022-08-31T08:29:29.050Z,98.20
2022-08-31T08:32:23.793Z,98.40
2022-08-31T08:35:12.643Z,98.40
2022-08-31T08:38:07.144Z,98.50
2022-08-31T08:40:56.400Z,98.70
2022-08-31T08:43:52.833Z,98.80
2022-08-31T08:46:49.725Z,98.30
2022-08-31T08:49:43.915Z,98.40
2022-08-31T08:52:38.433Z,98.20
2022-08-31T08:55:36.228Z,98.30
2022-08-31T08:58:24.648Z,98.40
2022-08-31T09:01:20.411Z,99.00
2022-08-31T09:04:19.430Z,98.70
2022-08-31T09:07:58.998Z,98.50
2022-08-31T09:10:58.136Z,98.90
2022-08-31T09:14:06.427Z,99.30
2022-08-31T09:17:06.005Z,98.10
2022-08-31T09:20:00.354Z,98.70
2022-08-31T09:22:55.838Z,99.40
2022-08-31T09:25:52.345Z,99.40
2022-08-31T09:29:04.030Z,99.10
2022-08-31T09:32:06.491Z,99.20
2022-08-31T09:35:01.753Z,99.00
2022-08-31T09:38:02.181Z,98.70
2022-08-31T09:40:53.181Z,99.00
2022-08-31T09:43:41.188Z,99.40
2022-08-31T09:46:31.726Z,99.80
2022-08-31T09:49:25.584Z,99.90
2022-08-31T09:52:42.417Z,99.50
2022-08-31T09:55:30.237Z,99.60
2022-08-31T09:58:30.933Z,99.90
2022-08-31T10:01:32.013Z,99.60
2022-08-31T10:04:27.256Z,99.40
2022-08-31T10:07:29.966Z,99.90
2022-08-31T10:10:30.223Z,99.60
2022-08-31T10:13:26.022Z,99.90
2022-08-31T10:16:26.750Z,99.90
2022-08-31T10:19:21.040Z,99.90
2022-08-31T10:22:23.230Z,99.90
2022-08-31T10:25:31.268Z,99.90
2022-08-31T10:28:31.844Z,99.90
2022-08-31T10:31:25.018Z,99.90
2022-08-31T10:34:36.211Z,99.90
2022-08-31T10:37:34.200Z,99.90
2022-08-31T10:40:32.252Z,99.90
2022-08-31T10:43:24.110Z,99.90
2022-08-31T10:46:12.528Z,99.90
2022-08-31T10:49:04.521Z,99.90
2022-08-31T10:52:03.382Z,99.90
2022-08-31T10:55:06.945Z,99.90
2022-08-31T10:58:02.521Z,99.90
2022-08-31T11:00:56.822Z,99.90
2022-08-31T11:04:08.842Z,99.90
2022-08-31T11:07:10.234Z,99.90
2022-08-31T11:10:12.146Z,99.90
2022-08-31T11:13:07.464Z,99.90
2022-08-31T11:16:16.436Z,99.90
2022-08-31T11:19:49.089Z,99.90
2022-08-31T11:23:19.690Z,99.90
2022-08-31T11:26:48.035Z,99.90
2022-08-31T11:29:43.338Z,99.90
2022-08-31T11:32:39.800Z,99.90
2022-08-31T11:36:05.628Z,99.90
2022-08-31T11:39:26.931Z,99.90
2022-08-31T11:43:01.311Z,99.90
2022-08-31T11:45:51.273Z,99.90
2022-08-31T11:49:01.149Z,99.90
2022-08-31T11:51:49.020Z,99.90
2022-08-31T11:55:00.254Z,99.90
2022-08-31T11:58:18.550Z,99.90
2022-08-31T12:01:35.975Z,99.90
2022-08-31T12:05:03.700Z,99.90
2022-08-31T12:07:51.584Z,99.90
2022-08-31T12:10:55.614Z,99.90
2022-08-31T12:13:51.961Z,99.90
2022-08-31T12:16:57.939Z,98.50
2022-08-31T12:20:05.658Z,99.40
2022-08-31T12:23:35.541Z,99.90
2022-08-31T12:26:50.953Z,99.90
2022-08-31T12:29:41.960Z,99.90
2022-08-31T12:32:36.330Z,99.90
2022-08-31T12:35:27.979Z,99.90
2022-08-31T12:38:20.753Z,99.90
2022-08-31T12:41:12.760Z,99.90
2022-08-31T12:44:00.702Z,99.90
2022-08-31T12:47:06.190Z,99.90
2022-08-31T12:50:09.675Z,99.90
2022-08-31T12:53:24.172Z,99.90
2022-08-31T12:56:16.792Z,99.90
2022-08-31T12:59:19.761Z,99.90
2022-08-31T13:02:13.334Z,99.90
2022-08-31T13:05:05.027Z,99.90
2022-08-31T13:07:53.754Z,99.90
2022-08-31T13:10:41.467Z,99.90
2022-08-31T13:13:31.084Z,99.90
2022-08-31T13:16:19.928Z,99.90
2022-08-31T13:19:09.713Z,99.90
2022-08-31T13:22:00.947Z,99.70
2022-08-31T13:24:54.193Z,99.90
2022-08-31T13:27:49.351Z,99.80
2022-08-31T13:30:39.216Z,99.00
2022-08-31T13:33:31.523Z,98.80
2022-08-31T13:36:33.241Z,97.50
2022-08-31T13:39:27.977Z,96.90
2022-08-31T13:42:34.213Z,96.40
2022-08-31T13:45:29.286Z,96.00
2022-08-31T13:48:25.049Z,96.60
2022-08-31T13:51:20.951Z,96.30
2022-08-31T13:54:13.989Z,94.50
2022-08-31T13:57:20.817Z,95.50
2022-08-31T14:00:27.414Z,95.60
2022-08-31T14:03:46.789Z,95.50
2022-08-31T14:06:38.991Z,95.40
2022-08-31T14:09:26.717Z,93.50
2022-08-31T14:12:35.035Z,95.40
2022-08-31T14:15:36.274Z,94.00
2022-08-31T14:18:28.612Z,94.40
2022-08-31T14:21:23.571Z,94.90
2022-08-31T14:24:14.459Z,93.80
2022-08-31T14:27:02.455Z,93.10
2022-08-31T14:29:55.205Z,93.30
2022-08-31T14:32:44.347Z,93.90
2022-08-31T14:35:32.856Z,94.20
2022-08-31T14:38:20.744Z,94.40
2022-08-31T14:41:12.864Z,93.60
2022-08-31T14:44:07.145Z,92.90
2022-08-31T14:46:55.064Z,93.00
2022-08-31T14:49:45.670Z,93.10
2022-08-31T14:52:35.593Z,93.20
2022-08-31T14:55:26.672Z,93.10
2022-08-31T14:58:20.246Z,92.60
2022-08-31T15:01:11.030Z,90.30
2022-08-31T15:04:04.172Z,92.20
2022-08-31T15:07:09.941Z,91.90
2022-08-31T15:09:58.030Z,90.90
2022-08-31T15:12:46.164Z,90.90
2022-08-31T15:15:35.854Z,91.30
2022-08-31T15:18:24.435Z,90.90
2022-08-31T15:21:14.774Z,90.90
2022-08-31T15:24:03.524Z,91.00
2022-08-31T15:26:53.787Z,90.50
2022-08-31T15:29:41.855Z,90.20
2022-08-31T15:32:31.649Z,91.30
2022-08-31T15:35:24.348Z,89.50
2022-08-31T15:38:16.243Z,89.50
2022-08-31T15:41:08.443Z,90.20
2022-08-31T15:43:56.876Z,90.10
2022-08-31T15:47:02.464Z,90.70
2022-08-31T15:49:52.021Z,89.80
2022-08-31T15:52:44.063Z,90.00
2022-08-31T15:55:41.077Z,90.40
2022-08-31T15:58:30.277Z,88.80
2022-08-31T16:01:18.541Z,90.20
2022-08-31T16:04:07.675Z,90.50
2022-08-31T16:06:59.421Z,88.80
2022-08-31T16:09:47.166Z,89.60
2022-08-31T16:12:35.373Z,89.10
2022-08-31T16:15:25.117Z,89.70
2022-08-31T16:18:13.424Z,89.30
2022-08-31T16:21:08.241Z,89.80
2022-08-31T16:24:00.974Z,86.00
2022-08-31T16:26:54.391Z,86.00
2022-08-31T16:29:42.932Z,87.00
2022-08-31T16:32:32.077Z,88.40
2022-08-31T16:35:20.668Z,87.60
2022-08-31T16:38:08.716Z,88.20
2022-08-31T16:41:02.902Z,88.40
2022-08-31T16:44:09.413Z,87.50
2022-08-31T16:47:00.768Z,88.70
2022-08-31T16:49:48.278Z,83.40
2022-08-31T16:52:37.020Z,86.70
2022-08-31T16:55:24.818Z,85.10
2022-08-31T16:58:24.876Z,86.20
2022-08-31T17:01:25.615Z,84.40
2022-08-31T17:04:29.243Z,85.20
2022-08-31T17:07:25.884Z,83.60
2022-08-31T17:10:15.087Z,85.30
2022-08-31T17:13:02.717Z,84.60
2022-08-31T17:15:51.864Z,85.20
2022-08-31T17:18:44.479Z,82.60
2022-08-31T17:21:33.878Z,84.70
2022-08-31T17:24:25.472Z,83.90
2022-08-31T17:27:17.129Z,85.60
2022-08-31T17:30:08.125Z,84.10
2022-08-31T17:32:57.378Z,85.30
2022-08-31T17:35:45.091Z,86.20
2022-08-31T17:38:32.736Z,85.80
2022-08-31T17:41:20.421Z,85.00
2022-08-31T17:44:09.333Z,85.20
2022-08-31T17:46:59.100Z,86.20
2022-08-31T17:49:50.006Z,85.60
2022-08-31T17:52:37.918Z,86.20
2022-08-31T17:55:25.618Z,87.70
2022-08-31T17:58:13.292Z,87.50
2022-08-31T18:01:01.696Z,86.70
2022-08-31T18:03:49.459Z,87.80
2022-08-31T18:06:44.932Z,87.30
2022-08-31T18:09:37.736Z,85.50
2022-08-31T18:12:25.928Z,86.60
2022-08-31T18:15:19.048Z,87.00
2022-08-31T18:18:06.797Z,86.00
2022-08-31T18:20:55.297Z,86.60
2022-08-31T18:23:45.100Z,85.90
2022-08-31T18:26:36.562Z,84.80
2022-08-31T18:29:26.559Z,86.50
2022-08-31T18:32:14.785Z,86.60
2022-08-31T18:35:03.761Z,84.70
2022-08-31T18:37:51.700Z,84.30
2022-08-31T18:40:59.004Z,85.70
2022-08-31T18:44:04.411Z,86.60
2022-08-31T18:46:53.130Z,86.30
2022-08-31T18:49:43.415Z,86.20
2022-08-31T18:52:32.142Z,86.40
2022-08-31T18:55:20.538Z,87.60
2022-08-31T18:58:09.876Z,87.00
2022-08-31T19:00:59.267Z,87.00
2022-08-31T19:03:48.005Z,85.70
2022-08-31T19:06:36.750Z,84.70
2022-08-31T19:09:24.774Z,83.30
2022-08-31T19:12:16.945Z,83.00
2022-08-31T19:15:07.804Z,85.90
2022-08-31T19:17:55.509Z,83.10
2022-08-31T19:20:43.505Z,83.10
2022-08-31T19:23:31.276Z,82.60
2022-08-31T19:26:27.000Z,82.00
2022-08-31T19:29:23.008Z,80.70
2022-08-31T19:32:13.974Z,81.10
2022-08-31T19:35:02.249Z,81.60
2022-08-31T19:37:52.118Z,81.70
2022-08-31T19:40:41.153Z,81.90
2022-08-31T19:43:54.433Z,84.10
2022-08-31T19:46:40.825Z,82.20
2022-08-31T19:49:32.774Z,81.50
2022-08-31T19:52:21.349Z,80.70
2022-08-31T19:55:11.332Z,81.40
2022-08-31T19:57:59.226Z,82.70
2022-08-31T20:00:47.375Z,82.10
2022-08-31T20:03:36.318Z,83.00
2022-08-31T20:06:26.555Z,83.00
2022-08-31T20:09:15.180Z,81.80
2022-08-31T20:12:03.637Z,83.30
2022-08-31T20:14:51.574Z,85.00
2022-08-31T20:17:44.483Z,85.10
2022-08-31T20:20:36.312Z,84.90
2022-08-31T20:23:28.076Z,85.50
2022-08-31T20:26:16.445Z,83.80
2022-08-31T20:29:10.325Z,85.40
2022-08-31T20:32:00.460Z,86.20
2022-08-31T20:34:49.927Z,86.30
2022-08-31T20:37:37.659Z,86.40
2022-08-31T20:40:28.747Z,86.10
2022-08-31T20:43:17.396Z,85.20
2022-08-31T20:46:08.793Z,84.90
2022-08-31T20:49:22.223Z,84.40
2022-08-31T20:52:12.600Z,82.60
2022-08-31T20:55:03.308Z,82.90
2022-08-31T20:57:52.765Z,83.20
2022-08-31T21:00:45.163Z,82.90
2022-08-31T21:03:33.123Z,83.90
2022-08-31T21:06:26.197Z,82.60
2022-08-31T21:09:19.304Z,81.30
2022-08-31T21:13:01.268Z,81.10
2022-08-31T22:33:25.462Z,83.70
2022-08-31T22:36:30.953Z,83.60
2022-08-31T22:39:23.780Z,82.20
2022-08-31T22:42:12.107Z,82.10
2022-08-31T22:45:16.207Z,82.40
2022-08-31T22:48:59.818Z,82.40
2022-08-31T22:53:08.353Z,83.50
2022-08-31T22:56:54.255Z,81.50
2022-08-31T22:59:57.386Z,81.90
2022-08-31T23:03:16.584Z,82.00
2022-08-31T23:06:13.369Z,80.40
2022-08-31T23:26:13.029Z,81.50
2022-08-31T23:29:14.176Z,83.70
2022-08-31T23:33:13.475Z,83.40
2022-08-31T23:46:27.054Z,83.50
